createdAt,value
2022-10-22T00:02:27.715Z,17.42
2022-10-22T00:04:57.027Z,18.80
2022-10-22T00:07:23.982Z,17.25
2022-10-22T00:09:51.016Z,17.60
2022-10-22T00:12:17.917Z,18.13
2022-10-22T00:14:44.572Z,18.10
2022-10-22T00:17:11.694Z,16.95
2022-10-22T00:19:39.798Z,17.50
2022-10-22T00:22:07.030Z,17.80
2022-10-22T00:24:35.081Z,17.60
2022-10-22T00:27:02.385Z,17.80
2022-10-22T00:29:29.547Z,17.05
2022-10-22T00:34:28.338Z,18.90
2022-10-22T00:36:55.193Z,18.20
2022-10-22T00:39:24.228Z,17.63
2022-10-22T00:41:55.389Z,16.58
2022-10-22T00:44:52.327Z,17.50
2022-10-22T00:47:20.061Z,17.65
2022-10-22T00:49:46.971Z,17.95
2022-10-22T00:52:14.274Z,17.15
2022-10-22T00:54:41.789Z,18.10
2022-10-22T00:57:08.947Z,16.92
2022-10-22T00:59:36.488Z,16.75
2022-10-22T01:02:03.295Z,15.77
2022-10-22T01:04:29.870Z,15.70
2022-10-22T01:06:56.597Z,16.00
2022-10-22T01:09:45.595Z,18.20
2022-10-22T01:12:39.044Z,16.52
2022-10-22T01:15:07.968Z,16.98
2022-10-22T01:17:43.055Z,17.27
2022-10-22T01:20:29.735Z,18.60
2022-10-22T01:23:11.617Z,18.13
2022-10-22T01:25:46.671Z,18.35
2022-10-22T01:28:13.261Z,18.10
2022-10-22T01:30:40.835Z,18.90
2022-10-22T01:33:10.630Z,18.30
2022-10-22T01:35:42.513Z,17.45
2022-10-22T01:38:13.680Z,18.40
2022-10-22T01:40:40.970Z,18.83
2022-10-22T01:43:10.674Z,18.48
2022-10-22T01:45:43.427Z,18.83
2022-10-22T01:48:26.485Z,18.55
2022-10-22T01:51:11.406Z,17.52
2022-10-22T01:53:50.476Z,17.35
2022-10-22T01:56:18.115Z,16.88
2022-10-22T01:59:08.306Z,16.92
2022-10-22T02:01:46.564Z,17.33
2022-10-22T02:04:33.814Z,16.67
2022-10-22T02:07:05.131Z,17.52
2022-10-22T02:09:32.888Z,16.73
2022-10-22T02:12:02.544Z,17.05
2022-10-22T02:14:34.811Z,17.02
2022-10-22T02:17:01.776Z,17.17
2022-10-22T02:19:38.829Z,17.30
2022-10-22T02:22:05.887Z,16.98
2022-10-22T02:24:32.600Z,18.33
2022-10-22T02:27:18.267Z,19.27
2022-10-22T02:30:02.921Z,17.33
2022-10-22T02:32:35.646Z,16.20
2022-10-22T02:35:03.982Z,16.75
2022-10-22T02:37:31.351Z,16.85
2022-10-22T02:39:58.138Z,17.58
2022-10-22T02:42:26.394Z,16.88
2022-10-22T02:44:53.184Z,16.92
2022-10-22T02:47:20.215Z,16.63
2022-10-22T02:49:46.946Z,16.08
2022-10-22T02:52:13.641Z,17.35
2022-10-22T02:54:40.239Z,16.80
2022-10-22T02:57:06.867Z,17.98
2022-10-22T02:59:34.112Z,16.42
2022-10-22T03:02:00.691Z,16.17
2022-10-22T03:04:27.434Z,16.50
2022-10-22T03:06:54.106Z,17.33
2022-10-22T03:09:22.745Z,17.45
2022-10-22T03:11:51.717Z,17.23
2022-10-22T03:14:18.502Z,15.68
2022-10-22T03:16:45.060Z,16.30
2022-10-22T03:19:11.638Z,16.60
2022-10-22T03:21:55.952Z,17.33
2022-10-22T03:24:26.315Z,17.20
2022-10-22T03:26:53.346Z,18.40
2022-10-22T03:29:22.894Z,17.08
2022-10-22T03:31:49.501Z,17.42
2022-10-22T03:34:16.116Z,18.75
2022-10-22T03:36:42.957Z,17.33
2022-10-22T03:39:11.936Z,17.48
2022-10-22T03:41:38.761Z,19.13
2022-10-22T03:44:06.068Z,17.23
2022-10-22T03:46:32.905Z,17.52
2022-10-22T03:48:59.567Z,18.00
2022-10-22T03:51:28.446Z,17.58
2022-10-22T03:53:55.319Z,17.88
2022-10-22T03:56:21.921Z,19.40
2022-10-22T03:58:48.489Z,19.50
2022-10-22T04:01:15.405Z,19.02
2022-10-22T04:03:42.080Z,18.95
2022-10-22T04:06:12.356Z,21.40
2022-10-22T04:08:41.036Z,19.55
2022-10-22T04:11:07.799Z,21.30
2022-10-22T04:13:34.914Z,21.20
2022-10-22T04:16:18.689Z,21.23
2022-10-22T04:18:47.122Z,20.85
2022-10-22T04:21:16.344Z,21.40
2022-10-22T04:23:48.192Z,21.58
2022-10-22T04:26:17.150Z,22.95
2022-10-22T04:28:44.377Z,27.02
2022-10-22T04:31:13.456Z,28.35
2022-10-22T04:33:40.484Z,28.05
2022-10-22T04:36:11.388Z,27.65
2022-10-22T04:38:39.264Z,30.55
2022-10-22T04:41:16.102Z,29.58
2022-10-22T04:43:43.733Z,26.90
2022-10-22T04:46:11.343Z,29.30
2022-10-22T04:48:39.618Z,27.60
2022-10-22T04:51:07.945Z,24.98
2022-10-22T04:53:35.847Z,26.02
2022-10-22T04:56:19.895Z,25.60
2022-10-22T04:58:49.546Z,26.38
2022-10-22T05:01:21.436Z,25.63
2022-10-22T05:03:50.026Z,26.30
2022-10-22T05:06:17.804Z,26.65
2022-10-22T05:08:44.590Z,27.27
2022-10-22T05:11:12.136Z,25.60
2022-10-22T05:13:38.769Z,26.27
2022-10-22T05:16:05.630Z,25.00
2022-10-22T05:18:35.461Z,24.08
2022-10-22T05:21:02.323Z,24.92
2022-10-22T05:23:29.190Z,24.38
2022-10-22T05:25:55.852Z,24.65
2022-10-22T05:28:22.460Z,23.25
2022-10-22T05:30:58.544Z,24.98
2022-10-22T05:33:26.368Z,24.17
2022-10-22T05:35:53.850Z,23.95
2022-10-22T05:38:21.111Z,24.42
2022-10-22T05:40:47.855Z,24.52
2022-10-22T05:43:14.549Z,25.25
2022-10-22T05:45:42.370Z,26.23
2022-10-22T05:48:09.837Z,26.20
2022-10-22T05:50:37.679Z,25.42
2022-10-22T05:53:05.823Z,26.52
2022-10-22T05:55:37.098Z,25.08
2022-10-22T05:58:04.211Z,25.90
2022-10-22T06:00:30.945Z,25.08
2022-10-22T06:02:57.542Z,24.90
2022-10-22T06:05:24.219Z,24.15
2022-10-22T06:07:50.961Z,24.52
2022-10-22T06:10:20.734Z,23.73
2022-10-22T06:12:48.052Z,24.13
2022-10-22T06:15:20.467Z,23.25
2022-10-22T06:17:48.108Z,23.48
2022-10-22T06:20:15.267Z,26.35
2022-10-22T06:22:42.135Z,25.42
2022-10-22T06:25:09.525Z,25.00
2022-10-22T06:27:36.094Z,26.10
2022-10-22T06:30:02.915Z,24.83
2022-10-22T06:32:29.480Z,26.27
2022-10-22T06:34:56.086Z,25.02
2022-10-22T06:37:22.724Z,25.30
2022-10-22T06:39:49.298Z,25.00
2022-10-22T06:42:15.994Z,23.70
2022-10-22T06:44:42.574Z,25.40
2022-10-22T06:47:09.189Z,25.17
2022-10-22T06:49:35.857Z,23.52
2022-10-22T06:52:02.451Z,25.05
2022-10-22T06:54:29.023Z,26.33
2022-10-22T06:56:55.621Z,26.40
2022-10-22T06:59:22.314Z,24.83
2022-10-22T07:01:48.979Z,26.88
2022-10-22T07:04:15.624Z,26.45
2022-10-22T07:06:42.250Z,25.83
2022-10-22T07:09:10.086Z,28.35
2022-10-22T07:11:41.492Z,26.75
2022-10-22T07:14:08.530Z,28.85
2022-10-22T07:16:35.536Z,28.90
2022-10-22T07:19:03.962Z,29.20
2022-10-22T07:21:31.248Z,29.20
2022-10-22T07:23:59.168Z,29.42
2022-10-22T07:26:28.196Z,29.60
2022-10-22T07:28:54.782Z,28.45
2022-10-22T07:31:21.399Z,28.30
2022-10-22T07:33:48.060Z,29.38
2022-10-22T07:36:18.150Z,30.33
2022-10-22T07:38:47.811Z,28.67
2022-10-22T07:41:16.537Z,28.52
2022-10-22T07:43:43.709Z,29.05
2022-10-22T07:46:10.905Z,29.02
2022-10-22T07:48:37.927Z,28.63
2022-10-22T07:51:05.681Z,28.92
2022-10-22T07:53:32.672Z,29.80
2022-10-22T07:55:59.252Z,29.95
2022-10-22T07:58:26.097Z,29.98
2022-10-22T08:00:56.358Z,30.05
2022-10-22T08:03:23.538Z,28.88
2022-10-22T08:05:51.684Z,28.90
2022-10-22T08:08:18.511Z,30.02
2022-10-22T08:10:46.888Z,30.55
2022-10-22T08:13:13.938Z,30.52
2022-10-22T08:15:42.683Z,31.05
2022-10-22T08:18:09.317Z,30.65
2022-10-22T08:20:36.063Z,29.65
2022-10-22T08:23:02.736Z,28.80
2022-10-22T08:25:29.443Z,31.95
2022-10-22T08:27:56.039Z,31.92
2022-10-22T08:30:22.858Z,30.75
2022-10-22T08:32:53.043Z,30.05
2022-10-22T08:35:20.745Z,30.95
2022-10-22T08:37:47.375Z,31.02
2022-10-22T08:40:23.239Z,33.15
2022-10-22T08:43:13.290Z,33.10
2022-10-22T08:46:03.304Z,33.60
2022-10-22T08:48:36.815Z,32.38
2022-10-22T08:51:03.462Z,34.42
2022-10-22T08:53:41.582Z,32.95
2022-10-22T08:56:08.282Z,34.70
2022-10-22T08:58:49.108Z,35.15
2022-10-22T09:01:34.009Z,33.05
2022-10-22T09:04:25.231Z,33.50
2022-10-22T09:06:55.186Z,34.80
2022-10-22T09:09:22.111Z,35.42
2022-10-22T09:11:51.571Z,34.00
2022-10-22T09:14:22.955Z,32.85
2022-10-22T09:17:14.209Z,32.85
2022-10-22T09:19:57.026Z,31.45
2022-10-22T09:22:52.347Z,32.35
2022-10-22T09:25:20.061Z,32.00
2022-10-22T09:27:47.603Z,33.67
2022-10-22T09:30:18.816Z,32.17
2022-10-22T09:32:45.617Z,33.58
2022-10-22T09:35:14.364Z,32.95
2022-10-22T09:37:51.715Z,33.38
2022-10-22T09:40:18.743Z,32.70
2022-10-22T09:42:46.820Z,31.70
2022-10-22T09:45:25.018Z,30.42
2022-10-22T09:48:11.195Z,32.38
2022-10-22T09:50:44.387Z,31.45
2022-10-22T09:53:17.698Z,32.47
2022-10-22T09:55:49.667Z,32.80
2022-10-22T09:58:18.335Z,31.13
2022-10-22T10:00:53.433Z,29.67
2022-10-22T10:03:23.229Z,29.85
2022-10-22T10:05:53.552Z,30.08
2022-10-22T10:08:20.971Z,32.45
2022-10-22T10:10:48.677Z,29.70
2022-10-22T10:13:35.995Z,23.30
2022-10-22T10:16:36.287Z,25.27
2022-10-22T10:19:33.243Z,18.70
2022-10-22T10:22:06.645Z,20.00
2022-10-22T10:25:03.814Z,20.73
2022-10-22T10:27:36.556Z,21.90
2022-10-22T10:30:03.114Z,21.92
2022-10-22T10:32:48.815Z,22.23
2022-10-22T10:35:22.515Z,22.15
2022-10-22T10:38:29.786Z,22.05
2022-10-22T10:41:02.896Z,22.60
2022-10-22T10:43:51.952Z,21.73
2022-10-22T10:46:25.470Z,19.88
2022-10-22T10:48:59.407Z,20.27
2022-10-22T10:51:41.258Z,20.92
2022-10-22T10:54:30.472Z,22.83
2022-10-22T10:57:02.311Z,22.10
2022-10-22T10:59:48.827Z,22.65
2022-10-22T11:02:50.647Z,23.10
2022-10-22T11:05:43.887Z,21.10
2022-10-22T11:08:25.713Z,22.52
2022-10-22T11:11:01.159Z,22.27
2022-10-22T11:13:36.974Z,22.98
2022-10-22T11:16:34.144Z,23.85
2022-10-22T11:19:15.479Z,23.00
2022-10-22T11:21:57.587Z,23.95
2022-10-22T11:24:30.567Z,22.90
2022-10-22T11:27:04.422Z,23.13
2022-10-22T11:29:39.265Z,22.42
2022-10-22T11:32:12.596Z,22.25
2022-10-22T11:34:47.487Z,22.00
2022-10-22T11:37:15.272Z,22.58
2022-10-22T11:39:47.567Z,21.00
2022-10-22T11:42:38.148Z,21.38
2022-10-22T11:45:24.612Z,22.25
2022-10-22T11:48:12.135Z,19.10
2022-10-22T11:50:47.195Z,19.17
2022-10-22T11:53:13.810Z,16.40
2022-10-22T11:55:45.883Z,16.25
2022-10-22T11:58:28.002Z,14.45
2022-10-22T12:00:58.666Z,13.88
2022-10-22T12:03:49.996Z,13.65
2022-10-22T12:06:24.307Z,12.90
2022-10-22T12:09:01.673Z,13.40
2022-10-22T12:11:29.338Z,11.48
2022-10-22T12:14:02.658Z,12.98
2022-10-22T12:16:56.943Z,10.73
2022-10-22T12:19:28.180Z,10.57
2022-10-22T12:22:01.435Z,10.30
2022-10-22T12:24:35.306Z,9.68
2022-10-22T12:27:02.391Z,9.00
2022-10-22T12:29:32.645Z,10.05
2022-10-22T12:32:04.653Z,10.93
2022-10-22T12:34:31.212Z,10.88
2022-10-22T12:36:57.919Z,11.55
2022-10-22T12:39:27.301Z,10.70
2022-10-22T12:41:57.105Z,10.50
2022-10-22T12:44:23.743Z,10.57
2022-10-22T12:46:53.174Z,8.90
2022-10-22T12:49:29.045Z,8.15
2022-10-22T12:51:55.635Z,8.40
2022-10-22T12:54:27.670Z,7.45
2022-10-22T12:56:56.063Z,6.97
2022-10-22T12:59:26.195Z,5.38
2022-10-22T13:01:53.968Z,4.65
2022-10-22T13:04:31.429Z,4.40
2022-10-22T13:07:18.544Z,3.95
2022-10-22T13:09:59.519Z,3.55
2022-10-22T13:12:28.794Z,3.60
2022-10-22T13:14:55.389Z,2.95
2022-10-22T13:17:40.429Z,2.33
2022-10-22T13:20:23.259Z,2.88
2022-10-22T13:23:06.315Z,3.35
2022-10-22T13:25:36.241Z,3.53
2022-10-22T13:28:19.593Z,3.22
2022-10-22T13:31:02.858Z,4.45
2022-10-22T13:33:34.497Z,3.53
2022-10-22T13:36:01.979Z,4.47
2022-10-22T13:38:29.048Z,6.15
2022-10-22T13:40:56.228Z,6.22
2022-10-22T13:43:23.705Z,6.90
2022-10-22T13:45:54.553Z,7.03
2022-10-22T13:48:24.056Z,7.15
2022-10-22T13:50:52.205Z,7.88
2022-10-22T13:53:21.957Z,8.07
2022-10-22T13:55:50.290Z,7.30
2022-10-22T13:58:19.684Z,8.93
2022-10-22T14:00:49.315Z,8.93
2022-10-22T14:03:21.783Z,9.65
2022-10-22T14:05:49.087Z,9.23
2022-10-22T14:08:20.262Z,9.52
2022-10-22T14:10:47.127Z,7.70
2022-10-22T14:13:15.826Z,8.57
2022-10-22T14:15:45.486Z,8.57
2022-10-22T14:18:25.488Z,9.48
2022-10-22T14:20:55.217Z,9.10
2022-10-22T14:23:24.309Z,8.32
2022-10-22T14:25:52.080Z,8.05
2022-10-22T14:28:18.687Z,7.40
2022-10-22T14:30:46.427Z,7.30
2022-10-22T14:33:18.284Z,6.68
2022-10-22T14:35:45.408Z,6.55
2022-10-22T14:38:12.090Z,6.88
2022-10-22T14:40:40.135Z,5.43
2022-10-22T14:43:06.752Z,6.18
2022-10-22T14:45:33.351Z,5.78
2022-10-22T14:48:00.128Z,5.93
2022-10-22T14:50:26.770Z,5.38
2022-10-22T14:52:53.406Z,5.40
2022-10-22T14:55:20.187Z,5.13
2022-10-22T14:57:46.814Z,5.13
2022-10-22T15:00:17.070Z,5.70
2022-10-22T15:02:44.518Z,5.80
2022-10-22T15:05:11.491Z,6.38
2022-10-22T15:07:38.691Z,6.57
2022-10-22T15:10:06.740Z,6.53
2022-10-22T15:12:33.580Z,6.28
2022-10-22T15:15:00.205Z,5.80
2022-10-22T15:17:26.850Z,5.47
2022-10-22T15:19:53.927Z,5.28
2022-10-22T15:22:22.911Z,5.18
2022-10-22T15:24:49.694Z,5.07
2022-10-22T15:27:16.326Z,5.13
2022-10-22T15:29:43.677Z,4.22
2022-10-22T15:32:10.512Z,5.10
2022-10-22T15:34:38.654Z,4.47
2022-10-22T15:37:08.251Z,3.78
2022-10-22T15:39:35.674Z,3.53
2022-10-22T15:42:02.260Z,3.90
2022-10-22T15:44:31.774Z,3.35
2022-10-22T15:46:59.555Z,3.05
2022-10-22T15:49:28.237Z,3.90
2022-10-22T15:51:55.465Z,4.03
2022-10-22T15:54:24.876Z,3.58
2022-10-22T15:56:52.196Z,3.70
2022-10-22T15:59:18.802Z,4.00
2022-10-22T16:01:46.112Z,4.32
2022-10-22T16:04:13.400Z,4.68
2022-10-22T16:06:43.765Z,4.45
2022-10-22T16:09:13.279Z,4.75
2022-10-22T16:11:40.848Z,4.15
2022-10-22T16:14:09.973Z,4.28
2022-10-22T16:16:39.413Z,5.15
2022-10-22T16:19:06.236Z,9.20
2022-10-22T16:21:32.827Z,7.82
2022-10-22T16:24:05.965Z,8.88
2022-10-22T16:26:33.985Z,8.90
2022-10-22T16:29:00.645Z,7.63
2022-10-22T16:31:27.301Z,6.65
2022-10-22T16:33:54.692Z,4.95
2022-10-22T16:36:21.938Z,5.75
2022-10-22T16:38:49.553Z,4.68
2022-10-22T16:41:18.798Z,5.70
2022-10-22T16:43:48.460Z,4.85
2022-10-22T16:46:18.209Z,5.07
2022-10-22T16:48:46.498Z,4.65
2022-10-22T16:51:15.557Z,4.40
2022-10-22T16:53:42.347Z,3.80
2022-10-22T16:56:10.740Z,3.92
2022-10-22T16:58:38.377Z,4.35
2022-10-22T17:01:08.048Z,5.53
2022-10-22T17:03:35.439Z,5.80
2022-10-22T17:06:04.071Z,6.07
2022-10-22T17:08:31.791Z,6.15
2022-10-22T17:10:58.504Z,6.32
2022-10-22T17:13:25.413Z,6.60
2022-10-22T17:15:51.984Z,6.38
2022-10-22T17:18:18.738Z,5.90
2022-10-22T17:20:45.376Z,5.85
2022-10-22T17:23:11.973Z,5.97
2022-10-22T17:25:43.123Z,5.82
2022-10-22T17:28:11.253Z,6.20
2022-10-22T17:30:40.668Z,5.93
2022-10-22T17:33:08.288Z,6.70
2022-10-22T17:35:39.545Z,7.57
2022-10-22T17:38:07.235Z,6.75
2022-10-22T17:40:35.411Z,6.43
2022-10-22T17:43:01.986Z,6.32
2022-10-22T17:45:28.665Z,7.38
2022-10-22T17:47:57.207Z,7.70
2022-10-22T17:50:23.818Z,7.88
2022-10-22T17:52:50.658Z,7.15
2022-10-22T17:55:17.312Z,7.40
2022-10-22T17:57:43.883Z,7.30
2022-10-22T18:00:11.287Z,8.13
2022-10-22T18:02:37.909Z,7.20
2022-10-22T18:05:08.382Z,7.28
2022-10-22T18:07:34.960Z,7.68
2022-10-22T18:10:01.593Z,8.82
2022-10-22T18:12:28.306Z,8.45
2022-10-22T18:14:54.870Z,7.88
2022-10-22T18:17:21.449Z,7.82
2022-10-22T18:19:50.975Z,7.20
2022-10-22T18:22:17.521Z,7.55
2022-10-22T18:24:44.177Z,6.38
2022-10-22T18:27:10.746Z,8.65
2022-10-22T18:29:37.413Z,8.32
2022-10-22T18:32:09.427Z,7.93
2022-10-22T18:34:38.906Z,10.02
2022-10-22T18:37:05.511Z,8.07
2022-10-22T18:39:32.141Z,9.13
2022-10-22T18:41:58.729Z,9.45
2022-10-22T18:44:25.573Z,8.90
2022-10-22T18:46:52.155Z,8.40
2022-10-22T18:49:19.732Z,8.68
2022-10-22T18:51:48.913Z,8.70
2022-10-22T18:54:23.142Z,8.38
2022-10-22T18:56:51.246Z,8.23
2022-10-22T18:59:21.467Z,5.78
2022-10-22T19:01:48.868Z,6.45
2022-10-22T19:04:15.527Z,5.30
2022-10-22T19:06:45.282Z,6.13
2022-10-22T19:09:12.524Z,6.50
2022-10-22T19:11:39.324Z,4.53
2022-10-22T19:14:06.156Z,5.78
2022-10-22T19:16:34.777Z,5.25
2022-10-22T19:19:05.284Z,5.35
2022-10-22T19:21:32.741Z,5.00
2022-10-22T19:24:00.483Z,4.40
2022-10-22T19:26:29.247Z,4.10
2022-10-22T19:28:57.842Z,3.20
2022-10-22T19:31:26.371Z,4.00
2022-10-22T19:33:55.407Z,3.85
2022-10-22T19:36:25.169Z,3.60
2022-10-22T19:38:52.081Z,3.35
2022-10-22T19:41:21.332Z,3.80
2022-10-22T19:44:00.788Z,3.90
2022-10-22T19:46:29.147Z,4.20
2022-10-22T19:48:57.250Z,4.68
2022-10-22T19:51:29.885Z,5.40
2022-10-22T19:53:59.211Z,4.93
2022-10-22T19:56:25.986Z,4.72
2022-10-22T19:58:53.134Z,4.95
2022-10-22T20:01:20.162Z,5.05
2022-10-22T20:03:47.205Z,5.00
2022-10-22T20:06:15.886Z,4.10
2022-10-22T20:08:43.325Z,3.83
2022-10-22T20:11:15.515Z,4.28
2022-10-22T20:13:43.564Z,3.70
2022-10-22T20:16:15.654Z,4.65
2022-10-22T20:18:42.656Z,4.30
2022-10-22T20:21:13.403Z,5.15
2022-10-22T20:23:40.075Z,4.90
2022-10-22T20:26:06.865Z,4.10
2022-10-22T20:28:33.457Z,4.80
2022-10-22T20:31:00.171Z,4.63
2022-10-22T20:33:26.937Z,5.55
2022-10-22T20:36:02.439Z,5.53
2022-10-22T20:38:29.253Z,5.80
2022-10-22T20:41:01.373Z,6.07
2022-10-22T20:43:27.953Z,6.82
2022-10-22T20:45:54.643Z,6.28
2022-10-22T20:48:21.798Z,6.32
2022-10-22T20:50:48.404Z,5.95
2022-10-22T20:53:16.922Z,5.57
2022-10-22T20:55:43.676Z,5.68
2022-10-22T20:58:10.395Z,9.27
2022-10-22T21:00:39.268Z,6.85
2022-10-22T21:03:06.894Z,5.82
2022-10-22T21:05:34.715Z,5.40
2022-10-22T21:08:02.260Z,5.15
2022-10-22T21:10:32.470Z,5.45
2022-10-22T21:13:00.093Z,5.53
2022-10-22T21:15:27.610Z,5.85
2022-10-22T21:17:54.386Z,5.45
2022-10-22T21:20:23.851Z,5.60
2022-10-22T21:22:51.988Z,8.07
2022-10-22T21:25:18.583Z,6.35
2022-10-22T21:27:45.220Z,7.72
2022-10-22T21:30:12.632Z,6.75
2022-10-22T21:32:39.394Z,6.25
2022-10-22T21:35:06.337Z,6.75
2022-10-22T21:37:35.099Z,6.53
2022-10-22T21:40:03.717Z,5.63
2022-10-22T21:42:30.340Z,6.53
2022-10-22T21:44:57.151Z,6.47
2022-10-22T21:47:24.188Z,7.00
2022-10-22T21:49:50.850Z,7.47
2022-10-22T21:52:18.578Z,6.32
2022-10-22T21:54:45.125Z,7.63
2022-10-22T21:57:11.719Z,6.63
2022-10-22T21:59:38.427Z,6.68
2022-10-22T22:02:06.004Z,7.35
2022-10-22T22:04:33.160Z,6.80
2022-10-22T22:07:03.042Z,6.47
2022-10-22T22:09:29.589Z,6.63
2022-10-22T22:11:56.498Z,5.88
2022-10-22T22:14:23.077Z,6.22
2022-10-22T22:16:50.075Z,6.15
2022-10-22T22:19:16.873Z,7.45
2022-10-22T22:21:43.474Z,7.53
2022-10-22T22:24:12.763Z,7.90
2022-10-22T22:26:39.459Z,8.40
2022-10-22T22:29:06.117Z,9.60
2022-10-22T22:31:34.591Z,9.52
2022-10-22T22:34:09.279Z,10.02
2022-10-22T22:36:39.177Z,9.80
2022-10-22T22:39:07.489Z,10.90
2022-10-22T22:41:34.868Z,10.80
2022-10-22T22:44:01.527Z,11.43
2022-10-22T22:46:28.825Z,11.02
2022-10-22T22:48:55.493Z,12.73
2022-10-22T22:51:22.128Z,13.20
2022-10-22T22:53:49.049Z,12.88
2022-10-22T22:56:17.686Z,13.98
2022-10-22T22:58:44.806Z,12.30
2022-10-22T23:01:14.960Z,11.15
2022-10-22T23:03:42.756Z,12.52
2022-10-22T23:06:09.717Z,12.45
2022-10-22T23:08:36.881Z,14.90
2022-10-22T23:11:07.693Z,14.18
2022-10-22T23:13:35.415Z,14.40
2022-10-22T23:16:07.638Z,16.58
2022-10-22T23:18:35.208Z,16.00
2022-10-22T23:21:05.183Z,16.10
2022-10-22T23:23:33.120Z,16.08
2022-10-22T23:26:00.865Z,16.38
2022-10-22T23:28:27.757Z,17.33
2022-10-22T23:30:54.417Z,17.02
2022-10-22T23:33:21.126Z,16.15
2022-10-22T23:35:47.851Z,15.60
2022-10-22T23:38:14.479Z,14.63
2022-10-22T23:40:41.012Z,14.60
2022-10-22T23:43:07.673Z,15.18
2022-10-22T23:45:35.233Z,16.30
2022-10-22T23:48:02.058Z,15.73
2022-10-22T23:50:28.763Z,14.98
2022-10-22T23:52:55.398Z,13.05
2022-10-22T23:55:21.969Z,14.73
2022-10-22T23:57:48.566Z,12.68
